createdAt,value
2022-12-09T00:01:14.148Z,46.55
2022-12-09T00:03:41.918Z,36.22
2022-12-09T00:06:15.515Z,42.72
2022-12-09T00:08:43.049Z,39.20
2022-12-09T00:11:10.184Z,36.17
2022-12-09T00:13:37.428Z,35.67
2022-12-09T00:16:09.031Z,38.40
2022-12-09T00:18:36.767Z,39.72
2022-12-09T00:21:25.179Z,38.55
2022-12-09T00:23:54.260Z,41.33
2022-12-09T00:26:22.793Z,41.13
2022-12-09T00:28:50.883Z,42.20
2022-12-09T00:31:21.589Z,40.30
2022-12-09T00:33:48.693Z,38.13
2022-12-09T00:36:18.429Z,37.30
2022-12-09T00:38:45.796Z,39.50
2022-12-09T00:41:14.163Z,39.15
2022-12-09T00:43:42.384Z,45.63
2022-12-09T00:46:10.608Z,41.17
2022-12-09T00:48:38.692Z,42.72
2022-12-09T00:51:11.264Z,45.67
2022-12-09T00:53:39.123Z,44.22
2022-12-09T00:56:07.015Z,43.45
2022-12-09T00:58:34.012Z,41.47
2022-12-09T01:01:01.282Z,42.38
2022-12-09T01:03:28.449Z,43.13
2022-12-09T01:05:55.895Z,41.08
2022-12-09T01:08:24.370Z,44.75
2022-12-09T01:10:51.328Z,38.35
2022-12-09T01:13:18.236Z,40.00
2022-12-09T01:15:45.423Z,40.50
2022-12-09T01:18:14.229Z,40.38
2022-12-09T01:20:41.185Z,42.85
2022-12-09T01:23:08.528Z,39.22
2022-12-09T01:25:37.590Z,39.75
2022-12-09T01:28:04.556Z,43.40
2022-12-09T01:30:31.451Z,40.20
2022-12-09T01:32:58.376Z,47.38
2022-12-09T01:35:25.578Z,46.92
2022-12-09T01:37:52.460Z,47.53
2022-12-09T01:40:19.647Z,45.30
2022-12-09T01:42:46.870Z,46.15
2022-12-09T01:45:23.559Z,41.45
2022-12-09T01:48:05.647Z,42.10
2022-12-09T01:50:35.566Z,44.30
2022-12-09T01:53:02.690Z,38.88
2022-12-09T01:55:29.977Z,46.80
2022-12-09T01:57:57.052Z,42.17
2022-12-09T02:00:24.135Z,42.83
2022-12-09T02:02:52.375Z,42.78
2022-12-09T02:05:24.426Z,41.53
2022-12-09T02:10:19.407Z,42.00
2022-12-09T02:13:36.580Z,38.70
2022-12-09T02:16:09.855Z,33.92
2022-12-09T02:18:52.454Z,50.00
2022-12-09T02:21:42.252Z,35.10
2022-12-09T02:24:17.998Z,39.35
2022-12-09T02:26:51.785Z,64.93
2022-12-09T02:29:38.968Z,37.38
2022-12-09T02:32:06.126Z,45.22
2022-12-09T02:34:35.793Z,41.10
2022-12-09T02:37:12.033Z,37.38
2022-12-09T02:39:44.725Z,37.40
2022-12-09T02:42:17.071Z,37.90
2022-12-09T02:44:47.556Z,41.42
2022-12-09T02:47:18.426Z,35.90
2022-12-09T02:49:50.612Z,32.03
2022-12-09T02:54:47.073Z,36.30
2022-12-09T02:59:48.168Z,38.22
2022-12-09T03:02:29.236Z,42.13
2022-12-09T03:05:19.819Z,46.55
2022-12-09T03:10:31.671Z,42.58
2022-12-09T03:13:11.816Z,42.72
2022-12-09T03:15:42.280Z,35.60
2022-12-09T03:18:13.412Z,38.40
2022-12-09T03:20:42.971Z,38.63
2022-12-09T03:23:12.643Z,33.35
2022-12-09T03:25:48.892Z,38.15
2022-12-09T03:28:21.394Z,35.90
2022-12-09T03:30:49.361Z,30.75
2022-12-09T03:33:20.632Z,31.73
2022-12-09T03:36:00.773Z,34.88
2022-12-09T03:38:31.561Z,35.45
2022-12-09T03:41:05.384Z,41.05
2022-12-09T03:43:36.077Z,38.05
2022-12-09T03:46:03.453Z,38.92
2022-12-09T03:48:31.355Z,35.38
2022-12-09T03:51:24.400Z,33.33
2022-12-09T03:54:17.317Z,39.20
2022-12-09T03:56:49.275Z,32.83
2022-12-09T03:59:16.907Z,34.35
2022-12-09T04:01:45.343Z,32.75
2022-12-09T04:04:13.104Z,29.95
2022-12-09T04:06:40.106Z,30.23
2022-12-09T04:09:07.604Z,30.88
2022-12-09T04:11:35.039Z,29.88
2022-12-09T04:14:02.014Z,30.27
2022-12-09T04:16:29.359Z,30.98
2022-12-09T04:18:56.857Z,29.35
2022-12-09T04:21:24.008Z,30.88
2022-12-09T04:23:50.968Z,33.22
2022-12-09T04:26:21.866Z,33.67
2022-12-09T04:28:49.486Z,30.50
2022-12-09T04:31:18.203Z,30.88
2022-12-09T04:33:46.459Z,30.77
2022-12-09T04:36:16.642Z,31.95
2022-12-09T04:38:44.321Z,28.27
2022-12-09T04:41:11.758Z,33.83
2022-12-09T04:43:38.934Z,29.20
2022-12-09T04:46:10.502Z,34.45
2022-12-09T04:48:38.046Z,30.88
2022-12-09T04:51:05.008Z,30.70
2022-12-09T04:53:31.832Z,29.63
2022-12-09T04:56:00.590Z,31.10
2022-12-09T04:58:27.797Z,30.58
2022-12-09T05:00:55.300Z,29.83
2022-12-09T05:03:22.723Z,28.63
2022-12-09T05:05:50.069Z,28.52
2022-12-09T05:08:17.796Z,33.03
2022-12-09T05:10:49.997Z,32.17
2022-12-09T05:13:17.289Z,31.27
2022-12-09T05:15:44.404Z,31.95
2022-12-09T05:18:11.840Z,28.80
2022-12-09T05:20:40.649Z,29.02
2022-12-09T05:23:09.615Z,27.55
2022-12-09T05:25:37.247Z,30.35
2022-12-09T05:28:04.558Z,29.27
2022-12-09T05:30:31.816Z,29.80
2022-12-09T05:32:59.141Z,33.92
2022-12-09T05:35:26.231Z,34.90
2022-12-09T05:37:53.255Z,30.30
2022-12-09T05:40:20.127Z,34.90
2022-12-09T05:42:47.349Z,32.05
2022-12-09T05:45:14.378Z,30.77
2022-12-09T05:47:41.861Z,32.55
2022-12-09T05:50:10.323Z,33.42
2022-12-09T05:52:37.926Z,28.73
2022-12-09T05:55:07.135Z,32.40
2022-12-09T05:57:35.123Z,31.60
2022-12-09T06:00:02.902Z,35.60
2022-12-09T06:02:31.380Z,34.10
2022-12-09T06:04:58.713Z,29.20
2022-12-09T06:07:26.066Z,27.70
2022-12-09T06:09:53.337Z,28.67
2022-12-09T06:12:21.148Z,27.55
2022-12-09T06:14:48.236Z,29.48
2022-12-09T06:17:15.170Z,30.50
2022-12-09T06:19:42.464Z,32.15
2022-12-09T06:22:09.475Z,33.63
2022-12-09T06:24:36.620Z,32.45
2022-12-09T06:27:04.072Z,37.42
2022-12-09T06:29:31.392Z,30.65
2022-12-09T06:31:58.437Z,36.83
2022-12-09T06:34:25.653Z,36.47
2022-12-09T06:36:53.159Z,38.60
2022-12-09T06:39:20.158Z,35.75
2022-12-09T06:41:47.294Z,37.35
2022-12-09T06:44:19.868Z,40.88
2022-12-09T06:46:50.432Z,41.00
2022-12-09T06:49:18.078Z,33.28
2022-12-09T06:51:45.533Z,32.25
2022-12-09T06:54:13.503Z,37.47
2022-12-09T06:56:40.522Z,31.42
2022-12-09T06:59:10.006Z,33.90
2022-12-09T07:01:37.950Z,31.35
2022-12-09T07:04:06.738Z,31.60
2022-12-09T07:06:39.681Z,32.58
2022-12-09T07:09:10.768Z,30.92
2022-12-09T07:11:38.656Z,31.20
2022-12-09T07:14:06.052Z,28.48
2022-12-09T07:16:33.626Z,32.75
2022-12-09T07:19:01.168Z,30.33
2022-12-09T07:21:29.695Z,29.98
2022-12-09T07:24:00.212Z,28.38
2022-12-09T07:26:27.393Z,29.13
2022-12-09T07:28:54.414Z,29.27
2022-12-09T07:31:25.296Z,28.38
2022-12-09T07:33:54.459Z,26.00
2022-12-09T07:36:23.208Z,26.33
2022-12-09T07:39:21.839Z,26.23
2022-12-09T07:41:53.876Z,23.98
2022-12-09T07:44:21.082Z,23.38
2022-12-09T07:46:48.091Z,22.02
2022-12-09T07:49:15.982Z,21.50
2022-12-09T07:51:44.003Z,23.52
2022-12-09T07:54:15.794Z,26.50
2022-12-09T07:56:43.565Z,23.42
2022-12-09T07:59:12.333Z,19.15
2022-12-09T08:01:40.113Z,23.98
2022-12-09T08:04:08.156Z,21.98
2022-12-09T08:06:36.229Z,23.13
2022-12-09T08:09:07.157Z,21.98
2022-12-09T08:11:35.054Z,25.88
2022-12-09T08:14:10.818Z,24.08
2022-12-09T08:16:40.169Z,20.98
2022-12-09T08:19:08.175Z,22.58
2022-12-09T08:21:35.316Z,26.30
2022-12-09T08:24:06.046Z,22.77
2022-12-09T08:26:34.508Z,21.38
2022-12-09T08:29:02.133Z,22.73
2022-12-09T08:31:29.999Z,25.35
2022-12-09T08:33:58.639Z,23.27
2022-12-09T08:36:27.585Z,27.48
2022-12-09T08:38:56.188Z,26.30
2022-12-09T08:41:39.097Z,27.98
2022-12-09T08:44:14.831Z,25.30
2022-12-09T08:46:44.566Z,26.98
2022-12-09T08:49:12.821Z,27.77
2022-12-09T08:51:40.619Z,30.10
2022-12-09T08:54:07.763Z,31.58
2022-12-09T08:56:34.989Z,28.80
2022-12-09T08:59:02.997Z,27.98
2022-12-09T09:01:36.093Z,31.02
2022-12-09T09:04:09.577Z,30.30
2022-12-09T09:06:39.349Z,30.67
2022-12-09T09:09:07.915Z,29.42
2022-12-09T09:11:35.487Z,32.85
2022-12-09T09:14:04.924Z,32.63
2022-12-09T09:16:32.379Z,33.03
2022-12-09T09:19:00.471Z,28.17
2022-12-09T09:21:28.471Z,32.03
2022-12-09T09:23:55.597Z,31.70
2022-12-09T09:26:26.146Z,34.58
2022-12-09T09:28:55.712Z,36.42
2022-12-09T09:31:24.132Z,27.17
2022-12-09T09:33:51.975Z,30.83
2022-12-09T09:36:24.140Z,33.67
2022-12-09T09:38:53.974Z,33.75
2022-12-09T09:41:44.551Z,34.42
2022-12-09T09:44:34.686Z,32.20
2022-12-09T09:47:10.021Z,29.63
2022-12-09T09:49:53.752Z,32.08
2022-12-09T09:52:26.261Z,34.17
2022-12-09T09:54:53.345Z,32.63
2022-12-09T09:57:37.269Z,29.98
2022-12-09T10:00:27.859Z,34.10
2022-12-09T10:03:00.081Z,30.02
2022-12-09T10:06:00.784Z,31.45
2022-12-09T10:09:09.364Z,30.88
2022-12-09T10:11:57.595Z,34.47
2022-12-09T10:14:37.197Z,33.35
2022-12-09T10:17:25.362Z,30.60
2022-12-09T10:20:17.397Z,29.70
2022-12-09T10:22:48.246Z,34.63
2022-12-09T10:25:29.133Z,37.45
2022-12-09T10:28:05.155Z,33.83
2022-12-09T10:30:39.901Z,38.78
2022-12-09T10:33:13.901Z,38.17
2022-12-09T10:35:41.803Z,35.35
2022-12-09T10:38:17.578Z,40.17
2022-12-09T10:40:49.019Z,35.97
2022-12-09T10:43:38.868Z,34.78
2022-12-09T10:46:18.821Z,37.28
2022-12-09T10:48:50.185Z,39.17
2022-12-09T10:51:27.018Z,37.50
2022-12-09T10:53:58.940Z,41.90
2022-12-09T10:56:27.469Z,36.88
2022-12-09T10:59:24.220Z,39.78
2022-12-09T11:01:54.815Z,39.00
2022-12-09T11:04:28.131Z,38.05
2022-12-09T11:07:05.197Z,37.33
2022-12-09T11:09:35.552Z,40.22
2022-12-09T11:12:05.676Z,42.90
2022-12-09T11:14:41.416Z,36.08
2022-12-09T11:17:30.783Z,35.28
2022-12-09T11:20:07.982Z,37.08
2022-12-09T11:22:40.317Z,38.70
2022-12-09T11:25:28.766Z,40.60
2022-12-09T11:28:02.769Z,39.42
2022-12-09T11:31:12.063Z,38.53
2022-12-09T11:33:38.503Z,39.08
2022-12-09T11:36:10.551Z,38.67
2022-12-09T11:38:46.306Z,37.17
2022-12-09T11:41:35.448Z,39.58
2022-12-09T11:44:12.811Z,45.33
2022-12-09T11:46:40.252Z,39.53
2022-12-09T11:49:17.281Z,35.90
2022-12-09T11:51:59.882Z,34.35
2022-12-09T11:54:46.256Z,36.05
2022-12-09T11:57:30.503Z,36.33
2022-12-09T12:00:02.803Z,36.10
2022-12-09T12:02:40.291Z,33.60
2022-12-09T12:05:21.882Z,37.70
2022-12-09T12:08:01.189Z,37.97
2022-12-09T12:10:35.540Z,35.00
2022-12-09T12:13:22.785Z,37.28
2022-12-09T12:16:00.468Z,33.88
2022-12-09T12:18:31.143Z,35.47
2022-12-09T12:21:56.509Z,33.17
2022-12-09T12:24:32.273Z,30.17
2022-12-09T12:26:59.050Z,34.10
2022-12-09T12:29:45.420Z,30.88
2022-12-09T12:32:30.913Z,31.63
2022-12-09T12:35:03.914Z,31.50
2022-12-09T12:37:59.496Z,33.17
2022-12-09T12:41:01.568Z,30.77
2022-12-09T12:43:58.933Z,35.13
2022-12-09T12:46:42.359Z,31.85
2022-12-09T12:49:37.778Z,33.63
2022-12-09T12:56:00.073Z,30.25
2022-12-09T12:58:36.020Z,31.65
2022-12-09T13:01:29.998Z,34.63
2022-12-09T13:04:01.917Z,38.22
2022-12-09T13:06:38.367Z,38.40
2022-12-09T13:09:12.941Z,39.60
2022-12-09T13:12:05.458Z,39.53
2022-12-09T13:14:53.275Z,35.63
2022-12-09T13:17:26.991Z,39.42
2022-12-09T13:19:58.485Z,35.17
2022-12-09T13:22:31.766Z,42.53
2022-12-09T13:25:18.508Z,44.10
2022-12-09T13:27:59.718Z,39.97
2022-12-09T13:30:52.568Z,40.00
2022-12-09T13:33:42.184Z,43.85
2022-12-09T13:36:46.288Z,36.95
2022-12-09T13:39:34.092Z,41.72
2022-12-09T13:42:36.163Z,38.55
2022-12-09T13:45:06.784Z,37.08
2022-12-09T13:47:36.987Z,44.38
2022-12-09T13:50:08.202Z,46.05
2022-12-09T13:52:56.634Z,42.10
2022-12-09T13:55:33.949Z,38.78
2022-12-09T13:58:26.092Z,39.05
2022-12-09T14:01:37.737Z,42.72
2022-12-09T14:04:04.644Z,37.85
2022-12-09T14:06:47.602Z,35.17
2022-12-09T14:09:23.804Z,36.70
2022-12-09T14:11:55.813Z,35.40
2022-12-09T14:14:25.661Z,36.92
2022-12-09T14:16:56.381Z,35.92
2022-12-09T14:19:26.451Z,35.15
2022-12-09T14:22:24.315Z,34.85
2022-12-09T14:25:25.925Z,36.83
2022-12-09T14:28:13.833Z,38.85
2022-12-09T14:30:47.162Z,32.72
2022-12-09T14:33:44.419Z,37.40
2022-12-09T14:36:14.234Z,32.72
2022-12-09T14:39:07.924Z,33.90
2022-12-09T14:41:37.007Z,37.92
2022-12-09T14:44:12.670Z,35.83
2022-12-09T14:46:41.362Z,37.63
2022-12-09T14:49:21.014Z,34.10
2022-12-09T14:51:54.268Z,38.38
2022-12-09T14:54:28.926Z,36.25
2022-12-09T14:56:59.149Z,34.67
2022-12-09T14:59:28.226Z,34.58
2022-12-09T15:01:59.842Z,35.78
2022-12-09T15:04:29.884Z,34.13
2022-12-09T15:07:08.063Z,36.38
2022-12-09T15:09:34.907Z,35.50
2022-12-09T15:12:07.112Z,31.80
2022-12-09T15:17:00.732Z,30.48
2022-12-09T15:22:23.984Z,32.90
2022-12-09T15:24:52.640Z,38.47
2022-12-09T15:27:22.181Z,35.78
2022-12-09T15:29:50.045Z,35.58
2022-12-09T15:32:25.990Z,38.22
2022-12-09T15:34:54.355Z,34.65
2022-12-09T15:37:28.112Z,38.33
2022-12-09T15:40:03.829Z,34.53
2022-12-09T15:42:34.289Z,37.35
2022-12-09T15:45:09.959Z,38.67
2022-12-09T15:47:46.247Z,37.85
2022-12-09T15:50:18.665Z,36.13
2022-12-09T15:52:54.940Z,38.65
2022-12-09T15:55:41.552Z,39.90
2022-12-09T15:58:14.505Z,39.22
2022-12-09T16:00:47.091Z,40.55
2022-12-09T16:03:18.827Z,34.60
2022-12-09T16:05:54.918Z,39.13
2022-12-09T16:08:22.726Z,44.20
2022-12-09T16:10:51.920Z,39.60
2022-12-09T16:13:21.409Z,42.88
2022-12-09T16:15:53.361Z,41.90
2022-12-09T16:18:35.636Z,40.38
2022-12-09T16:21:37.709Z,40.33
2022-12-09T16:24:12.777Z,42.65
2022-12-09T16:26:49.516Z,42.05
2022-12-09T16:29:28.509Z,42.50
2022-12-09T16:32:34.277Z,39.53
2022-12-09T16:35:28.782Z,42.13
2022-12-09T16:37:58.574Z,44.03
2022-12-09T16:40:25.487Z,40.03
2022-12-09T16:43:15.180Z,47.42
2022-12-09T16:45:45.673Z,46.05
2022-12-09T16:48:13.471Z,40.90
2022-12-09T16:50:47.149Z,37.60
2022-12-09T16:53:20.228Z,43.28
2022-12-09T16:55:59.778Z,43.97
2022-12-09T16:58:32.466Z,42.90
2022-12-09T17:01:00.895Z,40.92
2022-12-09T17:03:47.394Z,45.10
2022-12-09T17:06:16.554Z,41.53
2022-12-09T17:08:44.259Z,47.03
2022-12-09T17:11:11.721Z,48.78
2022-12-09T17:13:39.256Z,42.90
2022-12-09T17:16:07.306Z,41.85
2022-12-09T17:18:34.765Z,51.13
2022-12-09T17:21:04.400Z,49.08
2022-12-09T17:23:37.721Z,45.58
2022-12-09T17:26:09.371Z,42.83
2022-12-09T17:28:37.772Z,48.67
2022-12-09T17:31:13.201Z,42.20
2022-12-09T17:33:40.011Z,41.95
2022-12-09T17:36:07.566Z,41.95
2022-12-09T17:38:34.620Z,59.95
2022-12-09T17:41:06.927Z,58.17
2022-12-09T17:43:34.390Z,52.78
2022-12-09T17:46:03.013Z,47.40
2022-12-09T17:48:31.661Z,54.10
2022-12-09T17:50:58.527Z,49.38
2022-12-09T17:53:25.460Z,46.55
2022-12-09T17:55:52.245Z,42.72
2022-12-09T17:58:19.050Z,45.63
2022-12-09T18:00:47.889Z,41.90
2022-12-09T18:03:27.379Z,44.70
2022-12-09T18:06:00.268Z,39.28
2022-12-09T18:08:29.729Z,45.88
2022-12-09T18:10:56.839Z,43.72
2022-12-09T18:13:23.673Z,44.95
2022-12-09T18:15:54.175Z,45.58
2022-12-09T18:18:21.805Z,47.92
2022-12-09T18:20:48.611Z,42.42
2022-12-09T18:23:15.490Z,43.17
2022-12-09T18:25:42.823Z,47.42
2022-12-09T18:28:09.719Z,43.15
2022-12-09T18:30:39.659Z,46.40
2022-12-09T18:33:06.690Z,45.40
2022-12-09T18:35:33.788Z,44.65
2022-12-09T18:38:09.601Z,44.45
2022-12-09T18:41:00.872Z,48.15
2022-12-09T18:43:33.437Z,45.03
2022-12-09T18:46:09.497Z,45.63
2022-12-09T18:48:36.650Z,45.60
2022-12-09T18:51:03.678Z,42.35
2022-12-09T18:53:30.943Z,41.40
2022-12-09T18:55:57.733Z,46.30
2022-12-09T18:58:42.825Z,40.28
2022-12-09T19:01:25.032Z,38.92
2022-12-09T19:03:54.284Z,38.90
2022-12-09T19:06:30.408Z,42.90
2022-12-09T19:09:00.608Z,52.58
2022-12-09T19:11:29.388Z,65.82
2022-12-09T19:13:56.899Z,52.00
2022-12-09T19:16:25.171Z,53.80
2022-12-09T19:18:53.731Z,52.25
2022-12-09T19:21:22.397Z,49.15
2022-12-09T19:23:49.778Z,52.22
2022-12-09T19:26:18.272Z,45.33
2022-12-09T19:28:48.171Z,45.08
2022-12-09T19:31:18.455Z,51.13
2022-12-09T19:33:45.595Z,45.47
2022-12-09T19:36:12.822Z,48.90
2022-12-09T19:38:40.503Z,46.83
2022-12-09T19:41:08.231Z,48.30
2022-12-09T19:43:35.373Z,45.92
2022-12-09T19:46:10.741Z,52.95
2022-12-09T19:48:39.655Z,53.58
2022-12-09T19:51:09.136Z,42.58
2022-12-09T19:53:37.680Z,41.47
2022-12-09T19:56:07.202Z,42.55
2022-12-09T19:58:37.071Z,42.40
2022-12-09T20:01:20.991Z,45.58
2022-12-09T20:03:50.710Z,46.78
2022-12-09T20:06:19.941Z,45.83
2022-12-09T20:08:47.456Z,51.38
2022-12-09T20:11:21.057Z,49.28
2022-12-09T20:13:48.124Z,47.33
2022-12-09T20:16:17.887Z,50.97
2022-12-09T20:18:46.715Z,49.72
2022-12-09T20:21:15.011Z,49.67
2022-12-09T20:23:42.830Z,55.47
2022-12-09T20:26:14.294Z,46.35
2022-12-09T20:28:43.256Z,49.97
2022-12-09T20:31:14.349Z,42.92
2022-12-09T20:33:41.718Z,45.28
2022-12-09T20:36:11.364Z,45.95
2022-12-09T20:38:39.270Z,41.03
2022-12-09T20:41:09.942Z,41.35
2022-12-09T20:43:40.575Z,40.65
2022-12-09T20:46:22.000Z,41.65
2022-12-09T20:48:50.004Z,40.03
2022-12-09T20:51:25.772Z,47.63
2022-12-09T20:53:53.851Z,42.45
2022-12-09T20:56:22.207Z,49.25
2022-12-09T20:58:51.108Z,49.67
2022-12-09T21:01:21.794Z,58.60
2022-12-09T21:03:49.414Z,55.72
2022-12-09T21:06:18.251Z,44.00
2022-12-09T21:08:45.568Z,42.72
2022-12-09T21:11:18.329Z,49.20
2022-12-09T21:13:48.556Z,40.90
2022-12-09T21:16:26.673Z,44.58
2022-12-09T21:18:55.716Z,42.88
2022-12-09T21:21:23.769Z,42.40
2022-12-09T21:23:54.210Z,44.35
2022-12-09T21:26:23.419Z,45.47
2022-12-09T21:28:51.315Z,52.00
2022-12-09T21:31:25.345Z,47.50
2022-12-09T21:33:56.023Z,47.70
2022-12-09T21:36:25.738Z,49.28
2022-12-09T21:38:53.822Z,45.80
2022-12-09T21:41:27.384Z,47.15
2022-12-09T21:43:58.080Z,47.30
2022-12-09T21:46:27.109Z,49.92
2022-12-09T21:49:01.556Z,52.60
2022-12-09T21:51:30.561Z,48.90
2022-12-09T21:53:57.584Z,58.63
2022-12-09T21:56:26.901Z,49.72
2022-12-09T21:58:55.721Z,52.67
2022-12-09T22:01:23.902Z,50.78
2022-12-09T22:03:50.744Z,50.67
2022-12-09T22:06:18.412Z,52.47
2022-12-09T22:08:45.501Z,55.90
2022-12-09T22:11:21.448Z,53.45
2022-12-09T22:13:48.450Z,49.20
2022-12-09T22:16:18.335Z,50.85
2022-12-09T22:18:45.614Z,48.00
2022-12-09T22:21:30.625Z,54.72
2022-12-09T22:23:59.798Z,52.38
2022-12-09T22:26:27.369Z,56.65
2022-12-09T22:28:55.083Z,56.50
2022-12-09T22:31:27.473Z,57.30
2022-12-09T22:33:56.448Z,59.42
2022-12-09T22:36:23.576Z,59.45
2022-12-09T22:38:50.591Z,57.65
2022-12-09T22:41:23.206Z,54.83
2022-12-09T22:43:50.911Z,54.25
2022-12-09T22:46:20.497Z,57.42
2022-12-09T22:48:48.307Z,54.65
2022-12-09T22:51:18.159Z,56.50
2022-12-09T22:53:45.640Z,54.35
2022-12-09T22:56:12.894Z,55.25
2022-12-09T22:58:40.383Z,56.53
2022-12-09T23:01:35.620Z,64.57
2022-12-09T23:04:03.755Z,57.13
2022-12-09T23:06:30.930Z,64.55
2022-12-09T23:08:58.233Z,63.90
2022-12-09T23:11:27.128Z,67.97
2022-12-09T23:13:54.588Z,68.15
2022-12-09T23:16:23.557Z,74.30
2022-12-09T23:18:51.386Z,68.10
2022-12-09T23:21:30.272Z,74.47
2022-12-09T23:24:00.305Z,66.75
2022-12-09T23:26:29.227Z,70.97
2022-12-09T23:28:58.162Z,72.03
2022-12-09T23:31:29.595Z,75.68
2022-12-09T23:33:57.542Z,52.72
2022-12-09T23:36:27.621Z,84.38
2022-12-09T23:38:54.829Z,75.18
2022-12-09T23:41:23.546Z,75.95
2022-12-09T23:43:51.710Z,76.05
2022-12-09T23:46:21.457Z,73.95
2022-12-09T23:48:50.278Z,74.40
2022-12-09T23:51:20.169Z,68.28
2022-12-09T23:53:49.375Z,63.60
2022-12-09T23:56:21.617Z,61.92
